sensor_id;sensor_type;location;lat;lon;timestamp;pressure;altitude;pressure_sealevel;temperature;humidity
57290;BME280;43523;53.022;-1.178;2023-04-28T00:00:35;100181.08;;;3.81;100.00
57290;BME280;43523;53.022;-1.178;2023-04-28T00:01:38;100179.62;;;3.59;100.00
57290;BME280;43523;53.022;-1.178;2023-04-28T00:02:40;100179.18;;;3.81;100.00
57290;BME280;43523;53.022;-1.178;2023-04-28T00:03:43;100176.13;;;3.12;100.00
57290;BME280;43523;53.022;-1.178;2023-04-28T00:04:46;100174.69;;;3.08;100.00
57290;BME280;43523;53.022;-1.178;2023-04-28T00:05:49;100172.67;;;2.88;100.00
57290;BME280;43523;53.022;-1.178;2023-04-28T00:06:51;100169.51;;;3.07;100.00
57290;BME280;43523;53.022;-1.178;2023-04-28T00:07:53;100169.86;;;3.00;100.00
57290;BME280;43523;53.022;-1.178;2023-04-28T00:08:56;100165.65;;;3.46;100.00
57290;BME280;43523;53.022;-1.178;2023-04-28T00:09:58;100163.34;;;3.03;100.00
57290;BME280;43523;53.022;-1.178;2023-04-28T00:11:00;100162.12;;;2.73;100.00
57290;BME280;43523;53.022;-1.178;2023-04-28T00:12:02;100159.01;;;3.11;100.00
57290;BME280;43523;53.022;-1.178;2023-04-28T00:13:05;100156.31;;;2.65;100.00
57290;BME280;43523;53.022;-1.178;2023-04-28T00:14:07;100153.79;;;2.87;100.00
57290;BME280;43523;53.022;-1.178;2023-04-28T00:15:09;100149.08;;;2.63;100.00
57290;BME280;43523;53.022;-1.178;2023-04-28T00:16:12;100145.90;;;2.90;100.00
57290;BME280;43523;53.022;-1.178;2023-04-28T00:17:14;100149.40;;;3.33;100.00
57290;BME280;43523;53.022;-1.178;2023-04-28T00:18:16;100147.47;;;3.04;100.00
57290;BME280;43523;53.022;-1.178;2023-04-28T00:19:19;100146.24;;;3.09;100.00
57290;BME280;43523;53.022;-1.178;2023-04-28T00:20:21;100143.73;;;3.17;100.00
57290;BME280;43523;53.022;-1.178;2023-04-28T00:21:23;100141.13;;;3.08;100.00
57290;BME280;43523;53.022;-1.178;2023-04-28T00:22:26;100140.01;;;3.47;100.00
57290;BME280;43523;53.022;-1.178;2023-04-28T00:23:28;100140.51;;;2.93;100.00
57290;BME280;43523;53.022;-1.178;2023-04-28T00:24:31;100139.86;;;2.67;100.00
57290;BME280;43523;53.022;-1.178;2023-04-28T00:25:33;100142.37;;;3.10;100.00
57290;BME280;43523;53.022;-1.178;2023-04-28T00:26:35;100142.11;;;2.84;100.00
57290;BME280;43523;53.022;-1.178;2023-04-28T00:27:38;100138.43;;;3.08;100.00
57290;BME280;43523;53.022;-1.178;2023-04-28T00:28:41;100137.44;;;3.17;100.00
57290;BME280;43523;53.022;-1.178;2023-04-28T00:29:44;100137.52;;;3.46;100.00
57290;BME280;43523;53.022;-1.178;2023-04-28T00:30:47;100134.58;;;3.34;100.00
57290;BME280;43523;53.022;-1.178;2023-04-28T00:31:49;100133.91;;;2.78;100.00
57290;BME280;43523;53.022;-1.178;2023-04-28T00:32:51;100133.84;;;3.44;100.00
57290;BME280;43523;53.022;-1.178;2023-04-28T00:33:53;100134.96;;;3.21;100.00
57290;BME280;43523;53.022;-1.178;2023-04-28T00:34:56;100132.97;;;3.33;100.00
57290;BME280;43523;53.022;-1.178;2023-04-28T00:35:59;100130.87;;;2.97;100.00
57290;BME280;43523;53.022;-1.178;2023-04-28T00:37:02;100130.29;;;3.71;100.00
57290;BME280;43523;53.022;-1.178;2023-04-28T00:38:05;100126.61;;;3.69;100.00
57290;BME280;43523;53.022;-1.178;2023-04-28T00:39:07;100129.16;;;3.95;100.00
57290;BME280;43523;53.022;-1.178;2023-04-28T00:40:11;100125.92;;;3.97;100.00
57290;BME280;43523;53.022;-1.178;2023-04-28T00:41:13;100129.16;;;4.19;100.00
57290;BME280;43523;53.022;-1.178;2023-04-28T00:42:15;100131.09;;;3.00;100.00
57290;BME280;43523;53.022;-1.178;2023-04-28T00:43:17;100126.05;;;3.63;100.00
57290;BME280;43523;53.022;-1.178;2023-04-28T00:44:20;100125.55;;;3.33;100.00
57290;BME280;43523;53.022;-1.178;2023-04-28T00:45:22;100127.77;;;3.17;100.00
57290;BME280;43523;53.022;-1.178;2023-04-28T00:46:27;100128.97;;;3.04;100.00
57290;BME280;43523;53.022;-1.178;2023-04-28T00:47:30;100125.90;;;2.75;100.00
57290;BME280;43523;53.022;-1.178;2023-04-28T00:48:33;100127.45;;;3.12;100.00
57290;BME280;43523;53.022;-1.178;2023-04-28T00:49:36;100127.27;;;3.05;100.00
57290;BME280;43523;53.022;-1.178;2023-04-28T00:50:38;100122.47;;;3.06;100.00
57290;BME280;43523;53.022;-1.178;2023-04-28T00:51:42;100124.59;;;3.38;100.00
57290;BME280;43523;53.022;-1.178;2023-04-28T00:52:44;100123.33;;;2.71;100.00
57290;BME280;43523;53.022;-1.178;2023-04-28T00:53:47;100120.97;;;2.66;100.00
57290;BME280;43523;53.022;-1.178;2023-04-28T00:54:49;100116.90;;;2.96;100.00
57290;BME280;43523;53.022;-1.178;2023-04-28T00:55:52;100119.66;;;3.02;100.00
57290;BME280;43523;53.022;-1.178;2023-04-28T00:56:55;100117.38;;;3.03;100.00
57290;BME280;43523;53.022;-1.178;2023-04-28T00:57:58;100117.96;;;3.29;100.00
57290;BME280;43523;53.022;-1.178;2023-04-28T00:59:01;100114.41;;;3.45;100.00
57290;BME280;43523;53.022;-1.178;2023-04-28T01:00:04;100116.82;;;2.95;100.00
57290;BME280;43523;53.022;-1.178;2023-04-28T01:01:08;100114.30;;;3.08;100.00
57290;BME280;43523;53.022;-1.178;2023-04-28T01:02:11;100113.62;;;2.99;100.00
57290;BME280;43523;53.022;-1.178;2023-04-28T01:03:14;100114.93;;;3.08;100.00
57290;BME280;43523;53.022;-1.178;2023-04-28T01:04:19;100111.06;;;3.32;100.00
57290;BME280;43523;53.022;-1.178;2023-04-28T01:05:24;100114.32;;;3.42;100.00
57290;BME280;43523;53.022;-1.178;2023-04-28T01:06:27;100118.98;;;3.37;100.00
57290;BME280;43523;53.022;-1.178;2023-04-28T01:07:30;100116.69;;;3.55;100.00
57290;BME280;43523;53.022;-1.178;2023-04-28T01:08:34;100117.20;;;2.98;100.00
57290;BME280;43523;53.022;-1.178;2023-04-28T01:09:37;100113.60;;;3.12;100.00
57290;BME280;43523;53.022;-1.178;2023-04-28T01:10:43;100114.37;;;3.27;100.00
57290;BME280;43523;53.022;-1.178;2023-04-28T01:11:44;100109.85;;;2.66;100.00
57290;BME280;43523;53.022;-1.178;2023-04-28T01:12:47;100109.53;;;3.73;100.00
57290;BME280;43523;53.022;-1.178;2023-04-28T01:13:49;100101.97;;;3.95;100.00
57290;BME280;43523;53.022;-1.178;2023-04-28T01:14:52;100105.27;;;3.58;100.00
57290;BME280;43523;53.022;-1.178;2023-04-28T01:15:54;100109.01;;;3.30;100.00
57290;BME280;43523;53.022;-1.178;2023-04-28T01:16:57;100107.09;;;2.80;100.00
57290;BME280;43523;53.022;-1.178;2023-04-28T01:18:00;100105.20;;;2.81;100.00
57290;BME280;43523;53.022;-1.178;2023-04-28T01:19:02;100104.08;;;3.14;100.00
57290;BME280;43523;53.022;-1.178;2023-04-28T01:20:08;100102.33;;;3.46;100.00
57290;BME280;43523;53.022;-1.178;2023-04-28T01:21:10;100098.97;;;3.56;100.00
57290;BME280;43523;53.022;-1.178;2023-04-28T01:22:12;100096.56;;;4.15;100.00
57290;BME280;43523;53.022;-1.178;2023-04-28T01:23:16;100096.40;;;3.88;100.00
57290;BME280;43523;53.022;-1.178;2023-04-28T01:24:18;100092.07;;;3.97;100.00
57290;BME280;43523;53.022;-1.178;2023-04-28T01:25:20;100093.47;;;4.02;100.00
57290;BME280;43523;53.022;-1.178;2023-04-28T01:26:22;100097.10;;;3.45;100.00
57290;BME280;43523;53.022;-1.178;2023-04-28T01:27:25;100091.14;;;3.73;100.00
57290;BME280;43523;53.022;-1.178;2023-04-28T01:28:27;100093.95;;;3.46;100.00
57290;BME280;43523;53.022;-1.178;2023-04-28T01:29:29;100086.72;;;3.69;100.00
57290;BME280;43523;53.022;-1.178;2023-04-28T01:30:32;100087.82;;;4.12;100.00
57290;BME280;43523;53.022;-1.178;2023-04-28T01:31:34;100089.51;;;4.55;100.00
57290;BME280;43523;53.022;-1.178;2023-04-28T01:32:37;100087.89;;;3.98;100.00
57290;BME280;43523;53.022;-1.178;2023-04-28T01:33:39;100087.52;;;4.32;100.00
57290;BME280;43523;53.022;-1.178;2023-04-28T01:34:42;100086.37;;;3.95;100.00
57290;BME280;43523;53.022;-1.178;2023-04-28T01:35:44;100082.75;;;3.91;100.00
57290;BME280;43523;53.022;-1.178;2023-04-28T01:36:46;100080.48;;;3.23;100.00
57290;BME280;43523;53.022;-1.178;2023-04-28T01:37:48;100077.32;;;3.33;100.00
57290;BME280;43523;53.022;-1.178;2023-04-28T01:38:51;100075.36;;;4.15;100.00
57290;BME280;43523;53.022;-1.178;2023-04-28T01:39:53;100076.24;;;3.71;100.00
57290;BME280;43523;53.022;-1.178;2023-04-28T01:40:55;100080.40;;;3.36;100.00
57290;BME280;43523;53.022;-1.178;2023-04-28T01:41:57;100081.38;;;4.18;100.00
57290;BME280;43523;53.022;-1.178;2023-04-28T01:43:00;100079.92;;;3.82;100.00
57290;BME280;43523;53.022;-1.178;2023-04-28T01:44:02;100082.63;;;3.91;100.00
57290;BME280;43523;53.022;-1.178;2023-04-28T01:45:05;100081.29;;;4.48;100.00
57290;BME280;43523;53.022;-1.178;2023-04-28T01:46:07;100085.20;;;4.08;100.00
57290;BME280;43523;53.022;-1.178;2023-04-28T01:47:09;100085.70;;;3.31;100.00
57290;BME280;43523;53.022;-1.178;2023-04-28T01:48:12;100086.23;;;4.27;100.00
57290;BME280;43523;53.022;-1.178;2023-04-28T01:49:14;100080.21;;;4.32;100.00
57290;BME280;43523;53.022;-1.178;2023-04-28T01:50:16;100078.79;;;4.34;100.00
57290;BME280;43523;53.022;-1.178;2023-04-28T01:51:19;100078.43;;;4.50;100.00
57290;BME280;43523;53.022;-1.178;2023-04-28T01:52:21;100074.58;;;4.72;100.00
57290;BME280;43523;53.022;-1.178;2023-04-28T01:53:23;100076.55;;;4.75;100.00
57290;BME280;43523;53.022;-1.178;2023-04-28T01:54:25;100076.65;;;5.21;100.00
57290;BME280;43523;53.022;-1.178;2023-04-28T01:55:28;100073.80;;;4.99;100.00
57290;BME280;43523;53.022;-1.178;2023-04-28T01:56:30;100075.43;;;4.51;100.00
57290;BME280;43523;53.022;-1.178;2023-04-28T01:57:32;100075.27;;;4.08;100.00
57290;BME280;43523;53.022;-1.178;2023-04-28T01:58:35;100077.36;;;3.89;100.00
57290;BME280;43523;53.022;-1.178;2023-04-28T01:59:37;100074.52;;;4.60;100.00
57290;BME280;43523;53.022;-1.178;2023-04-28T02:00:39;100074.87;;;5.01;100.00
57290;BME280;43523;53.022;-1.178;2023-04-28T02:01:41;100074.61;;;5.00;100.00
57290;BME280;43523;53.022;-1.178;2023-04-28T02:02:44;100074.16;;;4.67;100.00
57290;BME280;43523;53.022;-1.178;2023-04-28T02:03:47;100074.05;;;4.78;100.00
57290;BME280;43523;53.022;-1.178;2023-04-28T02:04:49;100072.80;;;4.72;100.00
57290;BME280;43523;53.022;-1.178;2023-04-28T02:05:52;100069.11;;;4.17;100.00
57290;BME280;43523;53.022;-1.178;2023-04-28T02:06:54;100067.70;;;4.34;100.00
57290;BME280;43523;53.022;-1.178;2023-04-28T02:07:57;100067.17;;;5.00;100.00
57290;BME280;43523;53.022;-1.178;2023-04-28T02:08:59;100066.15;;;5.22;100.00
57290;BME280;43523;53.022;-1.178;2023-04-28T02:10:01;100067.43;;;5.08;100.00
57290;BME280;43523;53.022;-1.178;2023-04-28T02:11:08;100067.32;;;4.34;100.00
57290;BME280;43523;53.022;-1.178;2023-04-28T02:12:11;100068.11;;;4.80;100.00
57290;BME280;43523;53.022;-1.178;2023-04-28T02:13:13;100064.65;;;4.26;100.00
57290;BME280;43523;53.022;-1.178;2023-04-28T02:14:16;100062.73;;;4.10;100.00
57290;BME280;43523;53.022;-1.178;2023-04-28T02:15:19;100059.57;;;4.73;100.00
57290;BME280;43523;53.022;-1.178;2023-04-28T02:16:21;100061.41;;;4.08;100.00
57290;BME280;43523;53.022;-1.178;2023-04-28T02:17:23;100059.10;;;4.26;100.00
57290;BME280;43523;53.022;-1.178;2023-04-28T02:18:25;100058.46;;;3.97;100.00
57290;BME280;43523;53.022;-1.178;2023-04-28T02:19:27;100055.30;;;4.70;100.00
57290;BME280;43523;53.022;-1.178;2023-04-28T02:20:29;100054.11;;;4.36;100.00
57290;BME280;43523;53.022;-1.178;2023-04-28T02:21:31;100048.14;;;3.92;100.00
57290;BME280;43523;53.022;-1.178;2023-04-28T02:22:33;100043.66;;;4.43;100.00
57290;BME280;43523;53.022;-1.178;2023-04-28T02:23:36;100041.18;;;4.11;100.00
57290;BME280;43523;53.022;-1.178;2023-04-28T02:24:38;100036.94;;;4.66;100.00
57290;BME280;43523;53.022;-1.178;2023-04-28T02:25:41;100035.90;;;4.71;100.00
57290;BME280;43523;53.022;-1.178;2023-04-28T02:26:44;100032.77;;;5.13;100.00
57290;BME280;43523;53.022;-1.178;2023-04-28T02:27:46;100036.99;;;5.33;100.00
57290;BME280;43523;53.022;-1.178;2023-04-28T02:28:49;100038.39;;;4.78;100.00
57290;BME280;43523;53.022;-1.178;2023-04-28T02:29:51;100038.43;;;4.47;100.00
57290;BME280;43523;53.022;-1.178;2023-04-28T02:31:01;100038.41;;;4.09;100.00
57290;BME280;43523;53.022;-1.178;2023-04-28T02:32:04;100036.71;;;5.06;100.00
57290;BME280;43523;53.022;-1.178;2023-04-28T02:33:07;100033.15;;;4.90;100.00
57290;BME280;43523;53.022;-1.178;2023-04-28T02:34:10;100032.81;;;4.82;100.00
57290;BME280;43523;53.022;-1.178;2023-04-28T02:35:12;100030.92;;;4.43;100.00
57290;BME280;43523;53.022;-1.178;2023-04-28T02:36:14;100035.65;;;4.36;100.00
57290;BME280;43523;53.022;-1.178;2023-04-28T02:37:16;100038.89;;;4.70;100.00
57290;BME280;43523;53.022;-1.178;2023-04-28T02:38:18;100046.53;;;3.86;100.00
57290;BME280;43523;53.022;-1.178;2023-04-28T02:39:20;100053.73;;;3.32;100.00
57290;BME280;43523;53.022;-1.178;2023-04-28T02:40:22;100061.08;;;3.30;100.00
57290;BME280;43523;53.022;-1.178;2023-04-28T02:41:25;100066.23;;;3.00;100.00
57290;BME280;43523;53.022;-1.178;2023-04-28T02:42:27;100068.85;;;3.14;100.00
57290;BME280;43523;53.022;-1.178;2023-04-28T02:43:30;100068.06;;;2.48;100.00
57290;BME280;43523;53.022;-1.178;2023-04-28T02:44:32;100065.65;;;3.30;100.00
57290;BME280;43523;53.022;-1.178;2023-04-28T02:45:35;100063.03;;;3.06;100.00
57290;BME280;43523;53.022;-1.178;2023-04-28T02:46:37;100064.67;;;2.85;100.00
57290;BME280;43523;53.022;-1.178;2023-04-28T02:47:39;100058.24;;;4.01;100.00
57290;BME280;43523;53.022;-1.178;2023-04-28T02:48:42;100061.34;;;4.40;100.00
57290;BME280;43523;53.022;-1.178;2023-04-28T02:49:45;100058.39;;;4.67;100.00
57290;BME280;43523;53.022;-1.178;2023-04-28T02:50:48;100054.68;;;4.76;100.00
57290;BME280;43523;53.022;-1.178;2023-04-28T02:51:50;100051.04;;;4.10;100.00
57290;BME280;43523;53.022;-1.178;2023-04-28T02:52:52;100051.99;;;3.91;100.00
57290;BME280;43523;53.022;-1.178;2023-04-28T02:53:54;100047.69;;;4.65;100.00
57290;BME280;43523;53.022;-1.178;2023-04-28T02:54:57;100045.75;;;4.63;100.00
57290;BME280;43523;53.022;-1.178;2023-04-28T02:55:59;100045.05;;;4.39;100.00
57290;BME280;43523;53.022;-1.178;2023-04-28T02:57:01;100041.70;;;4.66;100.00
57290;BME280;43523;53.022;-1.178;2023-04-28T02:58:04;100043.50;;;5.12;100.00
57290;BME280;43523;53.022;-1.178;2023-04-28T02:59:06;100043.38;;;4.28;100.00
57290;BME280;43523;53.022;-1.178;2023-04-28T03:00:09;100039.95;;;4.16;100.00
57290;BME280;43523;53.022;-1.178;2023-04-28T03:01:11;100040.07;;;4.63;100.00
57290;BME280;43523;53.022;-1.178;2023-04-28T03:02:13;100040.43;;;4.28;100.00
57290;BME280;43523;53.022;-1.178;2023-04-28T03:03:16;100042.22;;;4.18;100.00
57290;BME280;43523;53.022;-1.178;2023-04-28T03:04:18;100043.24;;;4.83;100.00
57290;BME280;43523;53.022;-1.178;2023-04-28T03:05:20;100044.60;;;4.93;100.00
57290;BME280;43523;53.022;-1.178;2023-04-28T03:06:23;100045.30;;;4.75;100.00
57290;BME280;43523;53.022;-1.178;2023-04-28T03:07:25;100046.09;;;4.73;100.00
57290;BME280;43523;53.022;-1.178;2023-04-28T03:08:27;100047.24;;;4.61;100.00
57290;BME280;43523;53.022;-1.178;2023-04-28T03:09:29;100046.64;;;4.55;100.00
57290;BME280;43523;53.022;-1.178;2023-04-28T03:10:32;100045.92;;;4.97;100.00
57290;BME280;43523;53.022;-1.178;2023-04-28T03:11:35;100046.97;;;5.17;100.00
57290;BME280;43523;53.022;-1.178;2023-04-28T03:12:37;100045.02;;;5.44;100.00
57290;BME280;43523;53.022;-1.178;2023-04-28T03:13:41;100045.62;;;4.98;100.00
57290;BME280;43523;53.022;-1.178;2023-04-28T03:14:42;100047.41;;;5.40;100.00
57290;BME280;43523;53.022;-1.178;2023-04-28T03:15:44;100041.93;;;4.59;100.00
57290;BME280;43523;53.022;-1.178;2023-04-28T03:16:47;100040.22;;;4.72;100.00
57290;BME280;43523;53.022;-1.178;2023-04-28T03:17:49;100039.31;;;4.88;100.00
57290;BME280;43523;53.022;-1.178;2023-04-28T03:18:52;100036.34;;;5.45;100.00
57290;BME280;43523;53.022;-1.178;2023-04-28T03:19:54;100035.21;;;5.67;100.00
57290;BME280;43523;53.022;-1.178;2023-04-28T03:20:56;100032.65;;;5.51;100.00
57290;BME280;43523;53.022;-1.178;2023-04-28T03:21:59;100032.96;;;5.73;100.00
57290;BME280;43523;53.022;-1.178;2023-04-28T03:23:02;100032.04;;;5.98;100.00
57290;BME280;43523;53.022;-1.178;2023-04-28T03:24:04;100035.93;;;5.44;100.00
57290;BME280;43523;53.022;-1.178;2023-04-28T03:25:07;100036.74;;;5.55;100.00
57290;BME280;43523;53.022;-1.178;2023-04-28T03:26:10;100037.18;;;5.53;100.00
57290;BME280;43523;53.022;-1.178;2023-04-28T03:27:11;100033.93;;;5.61;100.00
57290;BME280;43523;53.022;-1.178;2023-04-28T03:28:14;100032.03;;;5.70;100.00
57290;BME280;43523;53.022;-1.178;2023-04-28T03:29:16;100031.51;;;5.63;100.00
57290;BME280;43523;53.022;-1.178;2023-04-28T03:30:19;100030.84;;;5.38;100.00
57290;BME280;43523;53.022;-1.178;2023-04-28T03:31:22;100030.89;;;5.65;100.00
57290;BME280;43523;53.022;-1.178;2023-04-28T03:32:24;100037.17;;;5.10;100.00
57290;BME280;43523;53.022;-1.178;2023-04-28T03:33:26;100033.33;;;5.75;100.00
57290;BME280;43523;53.022;-1.178;2023-04-28T03:34:29;100034.11;;;5.49;100.00
57290;BME280;43523;53.022;-1.178;2023-04-28T03:35:31;100037.12;;;5.15;100.00
57290;BME280;43523;53.022;-1.178;2023-04-28T03:36:34;100031.93;;;5.52;100.00
57290;BME280;43523;53.022;-1.178;2023-04-28T03:37:36;100032.70;;;5.30;100.00
57290;BME280;43523;53.022;-1.178;2023-04-28T03:38:39;100030.33;;;5.55;100.00
57290;BME280;43523;53.022;-1.178;2023-04-28T03:39:46;100028.50;;;5.78;100.00
57290;BME280;43523;53.022;-1.178;2023-04-28T03:40:49;100026.89;;;5.69;100.00
57290;BME280;43523;53.022;-1.178;2023-04-28T03:41:51;100024.91;;;5.77;100.00
57290;BME280;43523;53.022;-1.178;2023-04-28T03:42:53;100024.94;;;5.78;100.00
57290;BME280;43523;53.022;-1.178;2023-04-28T03:43:55;100021.54;;;6.09;100.00
57290;BME280;43523;53.022;-1.178;2023-04-28T03:44:57;100021.89;;;5.74;100.00
57290;BME280;43523;53.022;-1.178;2023-04-28T03:45:59;100023.04;;;5.78;100.00
57290;BME280;43523;53.022;-1.178;2023-04-28T03:47:01;100024.91;;;5.54;100.00
57290;BME280;43523;53.022;-1.178;2023-04-28T03:48:04;100024.32;;;5.38;100.00
57290;BME280;43523;53.022;-1.178;2023-04-28T03:49:06;100021.92;;;5.73;100.00
57290;BME280;43523;53.022;-1.178;2023-04-28T03:50:08;100023.28;;;5.72;100.00
57290;BME280;43523;53.022;-1.178;2023-04-28T03:51:10;100021.08;;;5.77;100.00
57290;BME280;43523;53.022;-1.178;2023-04-28T03:52:12;100021.82;;;5.66;100.00
57290;BME280;43523;53.022;-1.178;2023-04-28T03:53:15;100021.13;;;5.66;100.00
57290;BME280;43523;53.022;-1.178;2023-04-28T03:54:17;100018.95;;;5.74;100.00
57290;BME280;43523;53.022;-1.178;2023-04-28T03:55:19;100018.21;;;5.20;100.00
57290;BME280;43523;53.022;-1.178;2023-04-28T03:56:21;100015.58;;;5.34;100.00
57290;BME280;43523;53.022;-1.178;2023-04-28T03:57:24;100017.96;;;5.79;100.00
57290;BME280;43523;53.022;-1.178;2023-04-28T03:58:26;100020.32;;;5.65;100.00
57290;BME280;43523;53.022;-1.178;2023-04-28T03:59:29;100022.41;;;4.95;100.00
57290;BME280;43523;53.022;-1.178;2023-04-28T04:00:31;100020.92;;;5.41;100.00
57290;BME280;43523;53.022;-1.178;2023-04-28T04:01:33;100017.00;;;5.43;100.00
57290;BME280;43523;53.022;-1.178;2023-04-28T04:02:35;100014.70;;;5.65;100.00
57290;BME280;43523;53.022;-1.178;2023-04-28T04:03:37;100014.57;;;6.05;100.00
57290;BME280;43523;53.022;-1.178;2023-04-28T04:04:40;100011.68;;;5.76;100.00
57290;BME280;43523;53.022;-1.178;2023-04-28T04:05:42;100013.59;;;5.74;100.00
57290;BME280;43523;53.022;-1.178;2023-04-28T04:06:46;100012.65;;;5.80;100.00
57290;BME280;43523;53.022;-1.178;2023-04-28T04:07:48;100011.65;;;5.78;100.00
57290;BME280;43523;53.022;-1.178;2023-04-28T04:08:50;100013.87;;;5.75;100.00
57290;BME280;43523;53.022;-1.178;2023-04-28T04:09:53;100013.77;;;5.70;100.00
57290;BME280;43523;53.022;-1.178;2023-04-28T04:10:55;100012.49;;;6.08;100.00
57290;BME280;43523;53.022;-1.178;2023-04-28T04:11:57;100010.80;;;5.91;100.00
57290;BME280;43523;53.022;-1.178;2023-04-28T04:12:59;100011.47;;;5.79;100.00
57290;BME280;43523;53.022;-1.178;2023-04-28T04:14:01;100011.26;;;5.82;100.00
57290;BME280;43523;53.022;-1.178;2023-04-28T04:15:04;100009.96;;;6.19;100.00
57290;BME280;43523;53.022;-1.178;2023-04-28T04:16:07;100008.37;;;6.11;100.00
57290;BME280;43523;53.022;-1.178;2023-04-28T04:17:09;100007.60;;;6.12;100.00
57290;BME280;43523;53.022;-1.178;2023-04-28T04:18:11;100009.84;;;6.08;100.00
57290;BME280;43523;53.022;-1.178;2023-04-28T04:19:14;100011.26;;;6.48;100.00
57290;BME280;43523;53.022;-1.178;2023-04-28T04:20:17;100013.71;;;6.09;100.00
57290;BME280;43523;53.022;-1.178;2023-04-28T04:21:19;100012.00;;;6.07;100.00
57290;BME280;43523;53.022;-1.178;2023-04-28T04:22:21;100008.49;;;5.46;100.00
57290;BME280;43523;53.022;-1.178;2023-04-28T04:23:23;100006.89;;;5.45;100.00
57290;BME280;43523;53.022;-1.178;2023-04-28T04:24:25;100009.38;;;5.34;100.00
57290;BME280;43523;53.022;-1.178;2023-04-28T04:25:27;100009.41;;;5.35;100.00
57290;BME280;43523;53.022;-1.178;2023-04-28T04:26:30;100006.78;;;5.32;100.00
57290;BME280;43523;53.022;-1.178;2023-04-28T04:27:32;100007.21;;;5.19;100.00
57290;BME280;43523;53.022;-1.178;2023-04-28T04:28:34;100010.63;;;5.71;100.00
57290;BME280;43523;53.022;-1.178;2023-04-28T04:29:37;100012.24;;;5.75;100.00
57290;BME280;43523;53.022;-1.178;2023-04-28T04:30:39;100012.83;;;5.33;100.00
57290;BME280;43523;53.022;-1.178;2023-04-28T04:31:42;100014.35;;;5.06;100.00
57290;BME280;43523;53.022;-1.178;2023-04-28T04:32:44;100016.70;;;4.85;100.00
57290;BME280;43523;53.022;-1.178;2023-04-28T04:33:47;100015.16;;;4.50;100.00
57290;BME280;43523;53.022;-1.178;2023-04-28T04:34:49;100012.40;;;5.35;100.00
57290;BME280;43523;53.022;-1.178;2023-04-28T04:35:51;100015.71;;;5.32;100.00
57290;BME280;43523;53.022;-1.178;2023-04-28T04:36:53;100018.19;;;5.83;100.00
57290;BME280;43523;53.022;-1.178;2023-04-28T04:37:55;100019.26;;;5.30;100.00
57290;BME280;43523;53.022;-1.178;2023-04-28T04:38:57;100021.39;;;5.33;100.00
57290;BME280;43523;53.022;-1.178;2023-04-28T04:40:00;100020.53;;;5.28;100.00
57290;BME280;43523;53.022;-1.178;2023-04-28T04:41:02;100023.27;;;4.80;100.00
57290;BME280;43523;53.022;-1.178;2023-04-28T04:42:04;100024.54;;;4.83;100.00
57290;BME280;43523;53.022;-1.178;2023-04-28T04:43:07;100027.37;;;4.83;100.00
57290;BME280;43523;53.022;-1.178;2023-04-28T04:44:09;100026.79;;;5.22;100.00
57290;BME280;43523;53.022;-1.178;2023-04-28T04:45:11;100027.45;;;5.33;100.00
57290;BME280;43523;53.022;-1.178;2023-04-28T04:46:14;100030.55;;;5.15;100.00
57290;BME280;43523;53.022;-1.178;2023-04-28T04:47:16;100027.89;;;5.15;100.00
57290;BME280;43523;53.022;-1.178;2023-04-28T04:48:18;100030.32;;;4.87;100.00
57290;BME280;43523;53.022;-1.178;2023-04-28T04:49:20;100028.25;;;5.02;100.00
57290;BME280;43523;53.022;-1.178;2023-04-28T04:50:23;100030.02;;;5.24;100.00
57290;BME280;43523;53.022;-1.178;2023-04-28T04:51:25;100030.58;;;5.37;100.00
57290;BME280;43523;53.022;-1.178;2023-04-28T04:52:28;100031.27;;;4.83;100.00
57290;BME280;43523;53.022;-1.178;2023-04-28T04:53:30;100028.23;;;5.18;100.00
57290;BME280;43523;53.022;-1.178;2023-04-28T04:54:32;100025.73;;;5.33;100.00
57290;BME280;43523;53.022;-1.178;2023-04-28T04:55:34;100026.65;;;5.89;100.00
57290;BME280;43523;53.022;-1.178;2023-04-28T04:56:37;100028.80;;;6.06;100.00
57290;BME280;43523;53.022;-1.178;2023-04-28T04:57:39;100031.29;;;6.19;100.00
57290;BME280;43523;53.022;-1.178;2023-04-28T04:58:42;100030.21;;;6.15;100.00
57290;BME280;43523;53.022;-1.178;2023-04-28T04:59:44;100034.54;;;5.02;100.00
57290;BME280;43523;53.022;-1.178;2023-04-28T05:00:47;100036.75;;;4.76;100.00
57290;BME280;43523;53.022;-1.178;2023-04-28T05:01:49;100036.22;;;4.66;100.00
57290;BME280;43523;53.022;-1.178;2023-04-28T05:02:51;100036.55;;;4.74;100.00
57290;BME280;43523;53.022;-1.178;2023-04-28T05:03:54;100037.08;;;5.05;100.00
57290;BME280;43523;53.022;-1.178;2023-04-28T05:04:56;100039.67;;;4.90;100.00
57290;BME280;43523;53.022;-1.178;2023-04-28T05:05:59;100039.17;;;5.23;100.00
57290;BME280;43523;53.022;-1.178;2023-04-28T05:07:01;100041.69;;;5.15;100.00
57290;BME280;43523;53.022;-1.178;2023-04-28T05:08:03;100037.07;;;5.56;100.00
57290;BME280;43523;53.022;-1.178;2023-04-28T05:09:06;100040.79;;;5.22;100.00
57290;BME280;43523;53.022;-1.178;2023-04-28T05:10:09;100037.58;;;5.49;100.00
57290;BME280;43523;53.022;-1.178;2023-04-28T05:11:11;100036.17;;;5.85;100.00
57290;BME280;43523;53.022;-1.178;2023-04-28T05:12:13;100038.61;;;5.77;100.00
57290;BME280;43523;53.022;-1.178;2023-04-28T05:13:16;100038.09;;;5.57;100.00
57290;BME280;43523;53.022;-1.178;2023-04-28T05:14:18;100040.80;;;5.26;100.00
57290;BME280;43523;53.022;-1.178;2023-04-28T05:15:21;100042.11;;;5.45;100.00
57290;BME280;43523;53.022;-1.178;2023-04-28T05:16:23;100046.88;;;5.09;100.00
57290;BME280;43523;53.022;-1.178;2023-04-28T05:17:25;100046.55;;;5.34;100.00
57290;BME280;43523;53.022;-1.178;2023-04-28T05:18:27;100049.04;;;4.81;100.00
57290;BME280;43523;53.022;-1.178;2023-04-28T05:19:30;100049.61;;;4.88;100.00
57290;BME280;43523;53.022;-1.178;2023-04-28T05:20:32;100047.98;;;4.97;100.00
57290;BME280;43523;53.022;-1.178;2023-04-28T05:21:34;100047.58;;;4.14;100.00
57290;BME280;43523;53.022;-1.178;2023-04-28T05:22:36;100048.57;;;4.40;100.00